Terminal Aerodrome Forecast
Issued by NWS Brownsville, TX

Home | Current Version | Previous Version | Text Only | Print | Product List | Glossary On
Versions: 1 2 3 4 5 6 7 8 9 10 11 12 13 14 15 16 17 18 19 20 21
000
FTUS44 KBRO 171100 AAB
TAFBRO
TAF AMD
KBRO 171146Z 1712/1812 13010KT P6SM TS SCT050 BKN070 BKN100CB
     FM171500 13013KT P6SM BKN040
     FM180000 09008KT P6SM BKN030
     FM180600 04003KT P6SM BKN030=

USA.gov is the U.S. government's official web portal to all federal, state and local government web resources and services.